Henry, South Dakota
Current Conditions -  °F | °C
As of 3:53 AM on Saturday 25 Oct 2014 (Local Time) from KATY Reporting Station
Scattered Clouds Scattered Clouds  
Wind Chill: 53°   Ceiling: Unl
Heat Index: 53°   Visibility: 10mi
Dew Point: 36°   Wind: 8mph
Humidity: 52%   Direction: 310°NW
Pressure: 30.07"   Gusts: NA
Location:  44.88°N, 97.47°W
Report Text: KATY 250853Z AUTO 31007KT 10SM SCT120 12/02 A3007 RMK AO2 SLP179 T01170022 51012 $
Loading
Personal Weather Stations






























Interactive Weather Map
Tropical Storm Tracking
New forecast layout! Learn more

10-Day Weather Forecast

Advertisements
Track Severe Weather on mobile